Aérodrome :
LOGIN :

S'inscrire | Disclaimer

   EN    FR    IT 

 










Légende :    VFR   VFR Marginal   IFR   IFR Intensif   IFR Très Intensif
Visi : 
Plafond : 
>= 8 km
>= 3000ft
5 à 8 km
1000 à 3000 ft
1500m à 5 km
500 à 1000 ft
800 à 1500m
200 à 500 ft
< 800m
< 200 ft
Symboles :   Orages  Brouillard  Fortes neiges  Fortes précipitations  Vent > 20 kt
SIGMETs :   Divers  Orages  Givrage  Turbulence  Onde Orograph.  Cendres Volcan.






- Altitude de l'aérodrome : 1411 ft
- Code IATA : GVA


LSGG - Genève Cointrin

DERNIER METAR :
  • 231450Z 21013KT CAVOK 19/M01 Q1028 NOSIG

METARs EXPIRÉS :
  • 231420Z 21015KT CAVOK 19/M02 Q1028 NOSIG
  • 231350Z 21012KT CAVOK 20/M01 Q1028 NOSIG
  • 231320Z 20011KT CAVOK 19/M02 Q1028 NOSIG
  • 231250Z 21012KT 9999 FEW060 19/M02 Q1029 NOSIG
  • 231220Z 21013KT 9999 FEW060 18/M04 Q1029 NOSIG

TAF TAF LSGG
Valide du 23 à 15h jusqu'au 24 à 21h UTC


231425Z 2315/2421 22010KT CAVOK TX19/2315Z TN05/2406Z TX18/2415Z
BECMG 2321/2323 VRB03KT
BECMG 2412/2414 22010KT
ATIS : +41 22 417 40 81



MET'MAP, la Météo Aéronautique d'un coup d'oeil ! - Copyright ORBIFLY Décembre 2007 - Disclaimer

ORBIFLY MET'MAP TEAM :

Programmation & Développement : Alexandra Zaïnal
Sur une idée originale de : Baudouin d'Aumeries
Assistance à la programmation : Marc-Olivier Méhu
Soutien technique & logistique : Manuel Goepfert

Contact : metmap@orbifly.com




SOURCES & CREDITS :

   NOAA